createdAt,value
2017-03-25T00:00:28.159Z,1024.32
2017-03-25T00:01:08.688Z,1024.32
2017-03-25T00:01:49.221Z,1024.31
2017-03-25T00:02:29.734Z,1024.34
2017-03-25T00:03:10.259Z,1024.31
2017-03-25T00:03:50.764Z,1024.28
2017-03-25T00:04:31.267Z,1024.31
2017-03-25T00:05:11.786Z,1024.28
2017-03-25T00:05:52.289Z,1024.3
2017-03-25T00:06:32.810Z,1024.29
2017-03-25T00:07:13.352Z,1024.32
2017-03-25T00:07:53.882Z,1024.32
2017-03-25T00:08:34.392Z,1024.3
2017-03-25T00:09:14.919Z,1024.32
2017-03-25T00:09:55.447Z,1024.36
2017-03-25T00:10:35.977Z,1024.38
2017-03-25T00:11:16.495Z,1024.33
2017-03-25T00:11:57.021Z,1024.35
2017-03-25T00:12:37.545Z,1024.35
2017-03-25T00:13:18.074Z,1024.35
2017-03-25T00:13:58.615Z,1024.3
2017-03-25T00:14:39.140Z,1024.31
2017-03-25T00:15:19.671Z,1024.27
2017-03-25T00:16:00.193Z,1024.3
2017-03-25T00:16:40.704Z,1024.28
2017-03-25T00:17:21.221Z,1024.27
2017-03-25T00:18:01.727Z,1024.23
2017-03-25T00:18:42.238Z,1024.25
2017-03-25T00:19:22.769Z,1024.24
2017-03-25T00:20:03.294Z,1024.25
2017-03-25T00:20:43.816Z,1024.23
2017-03-25T00:21:24.341Z,1024.25
2017-03-25T00:22:04.858Z,1024.2
2017-03-25T00:22:45.377Z,1024.18
2017-03-25T00:23:25.890Z,1024.15
2017-03-25T00:24:06.413Z,1024.12
2017-03-25T00:24:46.948Z,1024.15
2017-03-25T00:25:27.471Z,1024.1
2017-03-25T00:26:07.995Z,1024.13
2017-03-25T00:26:48.521Z,1024.13
2017-03-25T00:27:29.044Z,1024.14
2017-03-25T00:28:09.552Z,1024.18
2017-03-25T00:28:50.086Z,1024.14
2017-03-25T00:29:30.604Z,1024.15
2017-03-25T00:30:11.141Z,1024.14
2017-03-25T00:30:51.667Z,1024.12
2017-03-25T00:31:32.189Z,1024.11
2017-03-25T00:32:12.726Z,1024.11
2017-03-25T00:32:53.257Z,1024.08
2017-03-25T00:33:33.762Z,1024.07
2017-03-25T00:34:14.294Z,1024.08
2017-03-25T00:34:54.819Z,1024.06
2017-03-25T00:35:35.357Z,1024.05
2017-03-25T00:36:15.924Z,1024.08
2017-03-25T00:36:56.389Z,1024.08
2017-03-25T00:37:36.898Z,1024.05
2017-03-25T00:38:17.399Z,1024.11
2017-03-25T00:38:57.918Z,1024.11
2017-03-25T00:39:38.457Z,1024.13
2017-03-25T00:40:18.967Z,1024.09
2017-03-25T00:40:59.500Z,1024.1
2017-03-25T00:41:40.005Z,1024.11
2017-03-25T00:42:20.541Z,1024.1
2017-03-25T00:43:01.065Z,1024.08
2017-03-25T00:43:41.577Z,1024.12
2017-03-25T00:44:22.104Z,1024.15
2017-03-25T00:45:02.610Z,1024.13
2017-03-25T00:45:43.131Z,1024.19
2017-03-25T00:46:23.649Z,1024.13
2017-03-25T00:47:04.189Z,1024.11
2017-03-25T00:47:44.691Z,1024.14
2017-03-25T00:48:25.234Z,1024.08
2017-03-25T00:49:05.747Z,1024.05
2017-03-25T00:49:46.250Z,1024.06
2017-03-25T00:50:26.772Z,1024.02
2017-03-25T00:51:07.297Z,1024.04
2017-03-25T00:51:47.814Z,1024.03
2017-03-25T00:52:28.349Z,1024.03
2017-03-25T00:53:08.868Z,1023.98
2017-03-25T00:53:49.394Z,1024.04
2017-03-25T00:54:29.912Z,1024.07
2017-03-25T00:55:10.420Z,1024.02
2017-03-25T00:55:50.946Z,1024.04
2017-03-25T00:56:31.447Z,1024.04
2017-03-25T00:57:11.981Z,1024.02
2017-03-25T00:57:52.479Z,1023.99
2017-03-25T00:58:33.000Z,1023.96
2017-03-25T00:59:13.504Z,1023.98
2017-03-25T00:59:54.030Z,1023.98
2017-03-25T01:00:34.533Z,1023.93
2017-03-25T01:01:15.060Z,1023.96
2017-03-25T01:01:55.576Z,1023.95
2017-03-25T01:02:36.098Z,1023.98
2017-03-25T01:03:16.586Z,1024.02
2017-03-25T01:03:57.100Z,1024.02
2017-03-25T01:04:37.632Z,1024.08
2017-03-25T01:05:18.112Z,1024.08
2017-03-25T01:05:58.634Z,1024.11
2017-03-25T01:06:39.129Z,1024.09
2017-03-25T01:07:19.647Z,1024.11
2017-03-25T01:08:00.154Z,1024.14
2017-03-25T01:08:40.687Z,1024.12
2017-03-25T01:09:21.187Z,1024.06
2017-03-25T01:10:01.712Z,1024.06
2017-03-25T01:10:42.232Z,1024.01
2017-03-25T01:11:22.755Z,1024.04
2017-03-25T01:12:03.281Z,1024.04
2017-03-25T01:12:43.809Z,1024.03
2017-03-25T01:13:24.322Z,1024
2017-03-25T01:14:04.846Z,1024
2017-03-25T01:14:45.365Z,1024.02
2017-03-25T01:15:25.879Z,1024.04
2017-03-25T01:16:06.450Z,1024.03
2017-03-25T01:16:46.966Z,1024.02
2017-03-25T01:17:27.466Z,1024.04
2017-03-25T01:18:08.008Z,1024.01
2017-03-25T01:18:48.550Z,1023.98
2017-03-25T01:19:29.068Z,1023.97
2017-03-25T01:20:09.599Z,1023.94
2017-03-25T01:20:50.131Z,1023.97
2017-03-25T01:21:30.661Z,1023.94
2017-03-25T01:22:11.187Z,1023.97
2017-03-25T01:22:51.725Z,1023.95
2017-03-25T01:23:32.255Z,1023.94
2017-03-25T01:24:12.787Z,1023.97
2017-03-25T01:24:53.319Z,1023.88
2017-03-25T01:25:33.844Z,1023.91
2017-03-25T01:26:14.373Z,1023.89
2017-03-25T01:26:54.888Z,1023.91
2017-03-25T01:27:35.449Z,1023.87
2017-03-25T01:28:15.936Z,1023.85
2017-03-25T01:28:56.463Z,1023.84
2017-03-25T01:29:36.987Z,1023.84
2017-03-25T01:30:17.507Z,1023.84
2017-03-25T01:30:58.040Z,1023.86
2017-03-25T01:31:38.547Z,1023.85
2017-03-25T01:32:19.062Z,1023.83
2017-03-25T01:32:59.580Z,1023.79
2017-03-25T01:33:40.089Z,1023.84
2017-03-25T01:34:20.620Z,1023.84
2017-03-25T01:35:01.152Z,1023.83
2017-03-25T01:35:41.669Z,1023.82
2017-03-25T01:36:22.202Z,1023.81
2017-03-25T01:37:02.734Z,1023.8
2017-03-25T01:37:43.247Z,1023.85
2017-03-25T01:38:23.751Z,1023.81
2017-03-25T01:39:04.261Z,1023.83
2017-03-25T01:39:44.772Z,1023.78
2017-03-25T01:40:25.338Z,1023.73
2017-03-25T01:41:05.820Z,1023.79
2017-03-25T01:41:46.346Z,1023.73
2017-03-25T01:42:26.882Z,1023.73
2017-03-25T01:43:07.401Z,1023.69
2017-03-25T01:43:47.926Z,1023.69
2017-03-25T01:44:28.458Z,1023.67
2017-03-25T01:45:08.983Z,1023.67
2017-03-25T01:45:49.515Z,1023.69
2017-03-25T01:46:30.042Z,1023.65
2017-03-25T01:47:10.575Z,1023.7
2017-03-25T01:47:51.101Z,1023.67
2017-03-25T01:48:31.638Z,1023.65
2017-03-25T01:49:12.169Z,1023.62
2017-03-25T01:49:52.683Z,1023.62
2017-03-25T01:50:33.221Z,1023.64
2017-03-25T01:51:13.751Z,1023.63
2017-03-25T01:51:54.267Z,1023.63
2017-03-25T01:52:34.796Z,1023.59
2017-03-25T01:53:15.316Z,1023.62
2017-03-25T01:53:55.858Z,1023.6
2017-03-25T01:54:36.361Z,1023.64
2017-03-25T01:55:16.904Z,1023.67
2017-03-25T01:55:57.428Z,1023.65
2017-03-25T01:56:37.947Z,1023.68
2017-03-25T01:57:18.472Z,1023.65
2017-03-25T01:57:58.988Z,1023.66
2017-03-25T01:58:39.515Z,1023.68
2017-03-25T01:59:20.037Z,1023.66
2017-03-25T02:00:00.537Z,1023.66
2017-03-25T02:00:41.052Z,1023.68
2017-03-25T02:01:21.584Z,1023.66
2017-03-25T02:02:02.078Z,1023.66
2017-03-25T02:02:42.606Z,1023.65
2017-03-25T02:03:23.114Z,1023.67
2017-03-25T02:04:03.637Z,1023.66
2017-03-25T02:04:44.157Z,1023.66
2017-03-25T02:05:24.657Z,1023.64
2017-03-25T02:06:05.190Z,1023.66
2017-03-25T02:06:45.729Z,1023.64
2017-03-25T02:07:26.243Z,1023.63
2017-03-25T02:08:06.754Z,1023.65
2017-03-25T02:08:47.278Z,1023.6
2017-03-25T02:09:27.801Z,1023.63
2017-03-25T02:10:08.331Z,1023.63
2017-03-25T02:10:48.851Z,1023.64
2017-03-25T02:11:29.377Z,1023.62
2017-03-25T02:12:09.907Z,1023.62
2017-03-25T02:12:50.425Z,1023.63
2017-03-25T02:13:30.953Z,1023.61
2017-03-25T02:14:11.486Z,1023.65
2017-03-25T02:14:52.020Z,1023.7
2017-03-25T02:15:32.561Z,1023.66
2017-03-25T02:16:13.085Z,1023.7
2017-03-25T02:16:53.606Z,1023.67
2017-03-25T02:17:34.117Z,1023.69
2017-03-25T02:18:14.635Z,1023.68
2017-03-25T02:18:55.159Z,1023.7
2017-03-25T02:19:35.680Z,1023.7
2017-03-25T02:20:16.204Z,1023.68
2017-03-25T02:20:56.729Z,1023.71
2017-03-25T02:21:37.246Z,1023.68
2017-03-25T02:22:17.758Z,1023.69
2017-03-25T02:22:58.266Z,1023.68
2017-03-25T02:23:38.791Z,1023.71
2017-03-25T02:24:19.323Z,1023.7
2017-03-25T02:24:59.852Z,1023.68
2017-03-25T02:25:40.367Z,1023.68
2017-03-25T02:26:20.908Z,1023.66
2017-03-25T02:28:35.133Z,1023.64
2017-03-25T02:29:15.643Z,1023.61
2017-03-25T02:29:56.188Z,1023.63
2017-03-25T02:30:36.684Z,1023.61
2017-03-25T02:31:17.211Z,1023.63
2017-03-25T02:31:57.727Z,1023.66
2017-03-25T02:32:38.249Z,1023.63
2017-03-25T02:33:18.774Z,1023.66
2017-03-25T02:33:59.314Z,1023.64
2017-03-25T02:34:39.806Z,1023.61
2017-03-25T02:35:20.333Z,1023.6
2017-03-25T02:36:00.854Z,1023.6
2017-03-25T02:36:41.415Z,1023.59
2017-03-25T02:37:21.906Z,1023.61
2017-03-25T02:38:02.434Z,1023.54
2017-03-25T02:38:43.009Z,1023.55
2017-03-25T02:39:23.535Z,1023.54
2017-03-25T02:40:04.064Z,1023.5
2017-03-25T02:40:44.583Z,1023.52
2017-03-25T02:41:25.102Z,1023.49
2017-03-25T02:42:05.643Z,1023.46
2017-03-25T02:42:46.171Z,1023.49
2017-03-25T02:43:26.682Z,1023.46
2017-03-25T02:44:07.214Z,1023.46
2017-03-25T02:44:47.735Z,1023.47
2017-03-25T02:45:28.275Z,1023.39
2017-03-25T02:46:08.784Z,1023.43
2017-03-25T02:46:49.292Z,1023.43
2017-03-25T02:47:29.800Z,1023.4
2017-03-25T02:48:10.304Z,1023.42
2017-03-25T02:48:50.809Z,1023.38
2017-03-25T02:49:31.355Z,1023.39
2017-03-25T02:50:11.848Z,1023.34
2017-03-25T02:50:52.384Z,1023.34
2017-03-25T02:51:32.894Z,1023.36
2017-03-25T02:52:13.421Z,1023.32
2017-03-25T02:52:53.907Z,1023.3
2017-03-25T02:53:34.430Z,1023.31
2017-03-25T02:54:14.938Z,1023.33
2017-03-25T02:54:55.469Z,1023.35
2017-03-25T02:55:36.003Z,1023.33
2017-03-25T02:56:16.498Z,1023.37
2017-03-25T02:56:57.035Z,1023.31
2017-03-25T02:57:37.543Z,1023.35
2017-03-25T02:58:18.084Z,1023.35
2017-03-25T02:58:58.613Z,1023.33
2017-03-25T02:59:39.142Z,1023.36
2017-03-25T03:00:19.676Z,1023.36
2017-03-25T03:01:00.220Z,1023.36
2017-03-25T03:01:40.732Z,1023.38
2017-03-25T03:02:21.244Z,1023.37
2017-03-25T03:03:01.773Z,1023.39
2017-03-25T03:03:42.291Z,1023.41
2017-03-25T03:04:22.789Z,1023.36
2017-03-25T03:05:03.316Z,1023.38
2017-03-25T03:05:43.823Z,1023.37
2017-03-25T03:06:24.345Z,1023.36
2017-03-25T03:07:04.872Z,1023.38
2017-03-25T03:07:45.390Z,1023.3
2017-03-25T03:08:25.908Z,1023.37
2017-03-25T03:09:06.431Z,1023.37
2017-03-25T03:09:46.929Z,1023.36
2017-03-25T03:10:27.448Z,1023.36
2017-03-25T03:11:07.959Z,1023.36
2017-03-25T03:11:48.483Z,1023.37
2017-03-25T03:12:29.010Z,1023.39
2017-03-25T03:13:09.533Z,1023.38
2017-03-25T03:13:50.062Z,1023.42
2017-03-25T03:14:30.578Z,1023.38
2017-03-25T03:15:11.100Z,1023.4
2017-03-25T03:15:51.633Z,1023.4
2017-03-25T03:16:32.148Z,1023.38
2017-03-25T03:17:12.669Z,1023.37
2017-03-25T03:17:53.194Z,1023.36
2017-03-25T03:18:33.707Z,1023.37
2017-03-25T03:19:14.220Z,1023.33
2017-03-25T03:19:54.736Z,1023.35
2017-03-25T03:20:35.301Z,1023.34
2017-03-25T03:21:15.824Z,1023.37
2017-03-25T03:21:56.351Z,1023.37
2017-03-25T03:22:36.862Z,1023.33
2017-03-25T03:23:17.390Z,1023.37
2017-03-25T03:23:57.920Z,1023.35
2017-03-25T03:24:38.450Z,1023.36
2017-03-25T03:25:18.931Z,1023.37
2017-03-25T03:25:59.424Z,1023.38
2017-03-25T03:26:39.934Z,1023.39
2017-03-25T03:27:20.442Z,1023.39
2017-03-25T03:28:01.006Z,1023.35
2017-03-25T03:28:41.475Z,1023.36
2017-03-25T03:29:21.982Z,1023.41
2017-03-25T03:30:02.498Z,1023.4
2017-03-25T03:30:43.026Z,1023.39
2017-03-25T03:31:23.553Z,1023.39
2017-03-25T03:32:04.050Z,1023.41
2017-03-25T03:32:44.550Z,1023.36
2017-03-25T03:33:25.050Z,1023.36
2017-03-25T03:34:05.577Z,1023.36
2017-03-25T03:34:46.094Z,1023.39
2017-03-25T03:35:26.610Z,1023.41
2017-03-25T03:36:07.139Z,1023.41
2017-03-25T03:36:47.669Z,1023.38
2017-03-25T03:37:28.193Z,1023.4
2017-03-25T03:38:08.727Z,1023.4
2017-03-25T03:38:49.249Z,1023.42
2017-03-25T03:39:29.776Z,1023.4
2017-03-25T03:40:10.291Z,1023.38
2017-03-25T03:40:50.848Z,1023.42
2017-03-25T03:41:31.389Z,1023.42
2017-03-25T03:42:11.906Z,1023.37
2017-03-25T03:42:52.414Z,1023.39
2017-03-25T03:43:32.914Z,1023.4
2017-03-25T03:44:13.437Z,1023.38
2017-03-25T03:44:53.972Z,1023.34
2017-03-25T03:45:34.482Z,1023.41
2017-03-25T03:46:15.025Z,1023.41
2017-03-25T03:46:55.546Z,1023.39
2017-03-25T03:47:36.068Z,1023.43
2017-03-25T03:48:16.578Z,1023.43
2017-03-25T03:48:57.085Z,1023.42
2017-03-25T03:49:37.603Z,1023.42
2017-03-25T03:50:18.117Z,1023.44
2017-03-25T03:50:58.639Z,1023.47
2017-03-25T03:51:39.164Z,1023.45
2017-03-25T03:52:19.677Z,1023.4
2017-03-25T03:53:00.201Z,1023.43
2017-03-25T03:53:40.733Z,1023.48
2017-03-25T03:54:21.264Z,1023.41
2017-03-25T03:55:01.777Z,1023.41
2017-03-25T03:55:42.318Z,1023.41
2017-03-25T03:56:22.844Z,1023.4
2017-03-25T03:57:03.374Z,1023.41
2017-03-25T03:57:43.900Z,1023.42
2017-03-25T03:58:24.415Z,1023.41
2017-03-25T03:59:04.910Z,1023.4
2017-03-25T03:59:45.427Z,1023.4
2017-03-25T04:00:25.937Z,1023.36
2017-03-25T04:01:06.438Z,1023.4
2017-03-25T04:01:46.949Z,1023.36
2017-03-25T04:02:27.474Z,1023.38
2017-03-25T04:03:07.992Z,1023.43
2017-03-25T04:03:48.489Z,1023.4
2017-03-25T04:04:29.010Z,1023.41
2017-03-25T04:05:09.533Z,1023.39
2017-03-25T04:05:50.061Z,1023.41
2017-03-25T04:06:30.567Z,1023.45
2017-03-25T04:07:11.071Z,1023.43
2017-03-25T04:07:51.590Z,1023.45
2017-03-25T04:08:32.100Z,1023.43
2017-03-25T04:09:12.640Z,1023.38
2017-03-25T04:09:53.127Z,1023.42
2017-03-25T04:10:33.632Z,1023.42
2017-03-25T04:11:14.136Z,1023.38
2017-03-25T04:11:54.653Z,1023.36
2017-03-25T04:12:35.182Z,1023.4
2017-03-25T04:13:15.696Z,1023.42
2017-03-25T04:13:56.217Z,1023.36
2017-03-25T04:14:36.732Z,1023.41
2017-03-25T04:15:17.248Z,1023.35
2017-03-25T04:15:57.736Z,1023.38
2017-03-25T04:16:38.254Z,1023.34
2017-03-25T04:17:18.787Z,1023.4
2017-03-25T04:17:59.319Z,1023.36
2017-03-25T04:18:39.835Z,1023.37
2017-03-25T04:19:20.373Z,1023.38
2017-03-25T04:20:00.902Z,1023.4
2017-03-25T04:20:41.428Z,1023.39
2017-03-25T04:21:21.944Z,1023.42
2017-03-25T04:22:02.489Z,1023.38
2017-03-25T04:22:43.006Z,1023.4
2017-03-25T04:23:23.517Z,1023.37
2017-03-25T04:24:04.033Z,1023.37
2017-03-25T04:24:44.558Z,1023.42
2017-03-25T04:25:25.073Z,1023.43
2017-03-25T04:26:05.596Z,1023.43
2017-03-25T04:26:46.100Z,1023.41
2017-03-25T04:27:26.616Z,1023.4
2017-03-25T04:28:07.132Z,1023.4
2017-03-25T04:28:47.652Z,1023.43
2017-03-25T04:29:28.222Z,1023.43
2017-03-25T04:30:08.799Z,1023.43
2017-03-25T04:30:49.288Z,1023.44
2017-03-25T04:31:29.838Z,1023.44
2017-03-25T04:32:10.304Z,1023.45
2017-03-25T04:32:50.840Z,1023.42
2017-03-25T04:33:31.402Z,1023.44
2017-03-25T04:34:12.019Z,1023.45
2017-03-25T04:34:52.506Z,1023.4
2017-03-25T04:35:33.006Z,1023.45
2017-03-25T04:36:13.541Z,1023.41
2017-03-25T04:36:54.042Z,1023.41
2017-03-25T04:37:34.546Z,1023.44
2017-03-25T04:38:15.061Z,1023.38
2017-03-25T04:38:55.578Z,1023.39
2017-03-25T04:39:36.042Z,1023.41
2017-03-25T04:40:16.583Z,1023.39
2017-03-25T04:40:57.044Z,1023.38
2017-03-25T04:41:37.562Z,1023.38
2017-03-25T04:42:18.067Z,1023.36
2017-03-25T04:42:58.624Z,1023.41
2017-03-25T04:43:39.157Z,1023.4
2017-03-25T04:44:19.653Z,1023.4
2017-03-25T04:45:00.204Z,1023.4
2017-03-25T04:45:40.693Z,1023.41
2017-03-25T04:46:21.193Z,1023.42
2017-03-25T04:47:01.712Z,1023.39
2017-03-25T04:47:42.236Z,1023.39
2017-03-25T04:48:22.741Z,1023.39
2017-03-25T04:49:03.265Z,1023.44
2017-03-25T04:49:43.795Z,1023.42
2017-03-25T04:50:24.279Z,1023.41
2017-03-25T04:51:04.777Z,1023.38
2017-03-25T04:51:45.288Z,1023.38
2017-03-25T04:52:25.850Z,1023.41
2017-03-25T04:53:06.338Z,1023.38
2017-03-25T04:53:46.836Z,1023.42
2017-03-25T04:54:27.359Z,1023.45
2017-03-25T04:55:07.911Z,1023.42
2017-03-25T04:55:48.461Z,1023.39
2017-03-25T04:56:28.992Z,1023.44
2017-03-25T04:57:09.537Z,1023.46
2017-03-25T04:57:50.082Z,1023.42
2017-03-25T04:58:30.645Z,1023.42
2017-03-25T04:59:11.251Z,1023.43
2017-03-25T04:59:51.755Z,1023.46
2017-03-25T05:00:32.285Z,1023.45
2017-03-25T05:01:12.786Z,1023.43
2017-03-25T05:01:53.322Z,1023.41
2017-03-25T05:02:33.848Z,1023.41
2017-03-25T05:03:14.353Z,1023.41
2017-03-25T05:03:54.895Z,1023.41
2017-03-25T05:04:35.430Z,1023.39
2017-03-25T05:05:15.952Z,1023.38
2017-03-25T05:05:56.493Z,1023.4
2017-03-25T05:06:37.023Z,1023.44
2017-03-25T05:07:17.548Z,1023.39
2017-03-25T05:07:58.054Z,1023.42
2017-03-25T05:08:38.572Z,1023.43
2017-03-25T05:09:19.104Z,1023.45
2017-03-25T05:09:59.631Z,1023.46
2017-03-25T05:10:40.156Z,1023.47
2017-03-25T05:11:20.666Z,1023.46
2017-03-25T05:12:01.182Z,1023.46
2017-03-25T05:12:41.715Z,1023.51
2017-03-25T05:13:22.248Z,1023.48
2017-03-25T05:14:02.765Z,1023.52
2017-03-25T05:14:43.302Z,1023.5
2017-03-25T05:15:23.825Z,1023.47
2017-03-25T05:16:04.349Z,1023.53
2017-03-25T05:16:44.880Z,1023.49
2017-03-25T05:17:25.399Z,1023.55
2017-03-25T05:18:05.910Z,1023.51
2017-03-25T05:18:46.415Z,1023.49
2017-03-25T05:19:26.949Z,1023.51
2017-03-25T05:20:07.479Z,1023.49
2017-03-25T05:20:48.015Z,1023.48
2017-03-25T05:21:28.510Z,1023.46
2017-03-25T05:22:09.045Z,1023.48
2017-03-25T05:22:49.567Z,1023.5
2017-03-25T05:23:30.089Z,1023.45
2017-03-25T05:24:10.602Z,1023.52
2017-03-25T05:24:51.141Z,1023.51
2017-03-25T05:25:31.676Z,1023.48
2017-03-25T05:26:12.218Z,1023.5
2017-03-25T05:26:52.758Z,1023.48
2017-03-25T05:27:33.278Z,1023.46
2017-03-25T05:28:13.803Z,1023.46
2017-03-25T05:28:54.332Z,1023.49
2017-03-25T05:29:34.868Z,1023.46
2017-03-25T05:30:15.393Z,1023.47
2017-03-25T05:30:55.906Z,1023.49
2017-03-25T05:31:36.410Z,1023.5
2017-03-25T05:32:16.936Z,1023.47
2017-03-25T05:32:57.441Z,1023.5
2017-03-25T05:33:37.971Z,1023.49
2017-03-25T05:34:18.492Z,1023.51
2017-03-25T05:34:59.008Z,1023.52
2017-03-25T05:35:39.517Z,1023.46
2017-03-25T05:36:20.038Z,1023.51
2017-03-25T05:37:00.538Z,1023.51
2017-03-25T05:37:41.057Z,1023.51
2017-03-25T05:38:21.567Z,1023.49
2017-03-25T05:39:02.127Z,1023.51
2017-03-25T05:39:42.618Z,1023.49
2017-03-25T05:40:23.117Z,1023.48
2017-03-25T05:41:03.623Z,1023.52
2017-03-25T05:41:44.158Z,1023.53
2017-03-25T05:42:24.657Z,1023.56
2017-03-25T05:43:05.396Z,1023.5
2017-03-25T05:43:45.942Z,1023.54
2017-03-25T05:44:26.477Z,1023.5
2017-03-25T05:45:07.021Z,1023.52
2017-03-25T05:45:47.535Z,1023.55
2017-03-25T05:46:28.042Z,1023.52
2017-03-25T05:47:08.557Z,1023.55
2017-03-25T05:47:49.067Z,1023.54
2017-03-25T05:48:29.601Z,1023.53
2017-03-25T05:49:10.129Z,1023.52
2017-03-25T05:49:50.671Z,1023.55
2017-03-25T05:50:31.191Z,1023.52
2017-03-25T05:51:11.718Z,1023.55
2017-03-25T05:51:52.256Z,1023.52
2017-03-25T05:52:32.793Z,1023.54
2017-03-25T05:53:13.325Z,1023.52
2017-03-25T05:53:53.844Z,1023.55
2017-03-25T05:54:34.379Z,1023.52
2017-03-25T05:55:14.906Z,1023.56
2017-03-25T05:55:55.446Z,1023.55
2017-03-25T05:56:35.967Z,1023.53
2017-03-25T05:57:16.492Z,1023.49
2017-03-25T05:57:57.016Z,1023.54
2017-03-25T05:58:37.536Z,1023.55
2017-03-25T05:59:18.082Z,1023.53
2017-03-25T05:59:58.601Z,1023.5
2017-03-25T06:00:39.121Z,1023.56
2017-03-25T06:01:19.651Z,1023.56
2017-03-25T06:02:00.219Z,1023.56
2017-03-25T06:02:40.743Z,1023.54
2017-03-25T06:03:21.277Z,1023.54
2017-03-25T06:04:01.797Z,1023.53
2017-03-25T06:04:42.293Z,1023.54
2017-03-25T06:05:22.835Z,1023.53
2017-03-25T06:06:03.370Z,1023.55
2017-03-25T06:06:43.903Z,1023.51
2017-03-25T06:07:24.430Z,1023.54
2017-03-25T06:08:04.946Z,1023.51
2017-03-25T06:08:45.468Z,1023.51
2017-03-25T06:09:25.974Z,1023.54
2017-03-25T06:10:06.533Z,1023.46
2017-03-25T06:10:47.064Z,1023.48
2017-03-25T06:11:27.633Z,1023.48
2017-03-25T06:12:08.213Z,1023.46
2017-03-25T06:12:48.746Z,1023.49
2017-03-25T06:13:29.264Z,1023.47
2017-03-25T06:14:09.785Z,1023.49
2017-03-25T06:14:50.306Z,1023.49
2017-03-25T06:15:30.830Z,1023.46
2017-03-25T06:16:11.345Z,1023.47
2017-03-25T06:16:51.877Z,1023.46
2017-03-25T06:17:32.391Z,1023.43
2017-03-25T06:18:12.909Z,1023.46
2017-03-25T06:18:53.437Z,1023.46
2017-03-25T06:19:33.974Z,1023.41
2017-03-25T06:20:14.488Z,1023.43
2017-03-25T06:20:55.017Z,1023.44
2017-03-25T06:21:35.527Z,1023.42
2017-03-25T06:22:16.045Z,1023.45
2017-03-25T06:22:56.579Z,1023.42
2017-03-25T06:23:37.079Z,1023.43
2017-03-25T06:24:17.585Z,1023.42
2017-03-25T06:24:58.103Z,1023.41
2017-03-25T06:25:38.638Z,1023.39
2017-03-25T06:26:19.170Z,1023.35
2017-03-25T06:26:59.694Z,1023.39
2017-03-25T06:27:40.216Z,1023.39
2017-03-25T06:28:20.748Z,1023.32
2017-03-25T06:29:01.274Z,1023.3
2017-03-25T06:29:41.799Z,1023.34
2017-03-25T06:30:22.315Z,1023.34
2017-03-25T06:31:02.841Z,1023.31
2017-03-25T06:31:43.375Z,1023.3
2017-03-25T06:32:23.903Z,1023.34
2017-03-25T06:33:04.411Z,1023.31
2017-03-25T06:33:44.941Z,1023.3
2017-03-25T06:34:25.440Z,1023.35
2017-03-25T06:35:05.969Z,1023.36
2017-03-25T06:35:46.628Z,1023.34
2017-03-25T06:36:27.220Z,1023.38
2017-03-25T06:37:07.720Z,1023.38
2017-03-25T06:37:48.240Z,1023.35
2017-03-25T06:38:28.745Z,1023.4
2017-03-25T06:39:09.243Z,1023.38
2017-03-25T06:39:49.764Z,1023.4
2017-03-25T06:40:30.329Z,1023.37
2017-03-25T06:41:10.830Z,1023.42
2017-03-25T06:41:51.348Z,1023.39
2017-03-25T06:42:31.868Z,1023.43
2017-03-25T06:43:12.376Z,1023.41
2017-03-25T06:43:52.916Z,1023.45
2017-03-25T06:44:33.449Z,1023.43
2017-03-25T06:45:13.965Z,1023.44
2017-03-25T06:45:54.494Z,1023.43
2017-03-25T06:46:35.019Z,1023.43
2017-03-25T06:47:15.567Z,1023.43
2017-03-25T06:47:56.096Z,1023.44
2017-03-25T06:48:36.590Z,1023.45
2017-03-25T06:49:17.156Z,1023.47
2017-03-25T06:49:57.665Z,1023.45
2017-03-25T06:50:38.179Z,1023.44
2017-03-25T06:51:18.722Z,1023.48
2017-03-25T06:51:59.440Z,1023.49
2017-03-25T06:52:40.071Z,1023.5
2017-03-25T06:53:20.608Z,1023.52
2017-03-25T06:54:01.149Z,1023.52
2017-03-25T06:54:41.684Z,1023.49
2017-03-25T06:55:22.205Z,1023.49
2017-03-25T06:56:02.709Z,1023.45
2017-03-25T06:56:43.225Z,1023.45
2017-03-25T06:57:23.733Z,1023.48
2017-03-25T06:58:04.262Z,1023.53
2017-03-25T06:58:44.784Z,1023.51
2017-03-25T06:59:25.319Z,1023.5
2017-03-25T07:00:05.846Z,1023.47
2017-03-25T07:00:46.375Z,1023.51
2017-03-25T07:01:26.909Z,1023.48
2017-03-25T07:02:07.431Z,1023.47
2017-03-25T07:02:47.964Z,1023.49
2017-03-25T07:03:28.475Z,1023.46
2017-03-25T07:04:09.013Z,1023.49
2017-03-25T07:04:49.637Z,1023.48
2017-03-25T07:05:30.081Z,1023.49
2017-03-25T07:06:10.599Z,1023.52
2017-03-25T07:06:51.130Z,1023.52
2017-03-25T07:07:31.649Z,1023.49
2017-03-25T07:08:12.153Z,1023.54
2017-03-25T07:08:52.671Z,1023.55
2017-03-25T07:09:33.177Z,1023.52
2017-03-25T07:10:13.708Z,1023.51
2017-03-25T07:10:54.241Z,1023.54
2017-03-25T07:11:34.769Z,1023.52
2017-03-25T07:12:15.281Z,1023.52
2017-03-25T07:12:55.857Z,1023.52
2017-03-25T07:13:36.367Z,1023.5
2017-03-25T07:14:16.895Z,1023.47
2017-03-25T07:14:57.419Z,1023.49
2017-03-25T07:15:37.936Z,1023.48
2017-03-25T07:16:18.464Z,1023.46
2017-03-25T07:16:58.984Z,1023.46
2017-03-25T07:17:39.494Z,1023.51
2017-03-25T07:18:20.011Z,1023.5
2017-03-25T07:19:00.568Z,1023.49
2017-03-25T07:19:41.100Z,1023.52
2017-03-25T07:20:21.678Z,1023.49
2017-03-25T07:21:02.172Z,1023.52
2017-03-25T07:21:42.701Z,1023.53
2017-03-25T07:22:23.238Z,1023.51
2017-03-25T07:23:03.765Z,1023.46
2017-03-25T07:23:44.287Z,1023.45
2017-03-25T07:24:24.869Z,1023.46
2017-03-25T07:25:05.396Z,1023.47
2017-03-25T07:25:45.935Z,1023.47
2017-03-25T07:26:26.455Z,1023.45
2017-03-25T07:27:06.979Z,1023.47
2017-03-25T07:27:47.518Z,1023.46
2017-03-25T07:28:28.071Z,1023.43
2017-03-25T07:29:08.611Z,1023.4
2017-03-25T07:29:49.133Z,1023.38
2017-03-25T07:30:29.651Z,1023.37
2017-03-25T07:31:10.175Z,1023.38
2017-03-25T07:31:50.688Z,1023.36
2017-03-25T07:32:31.217Z,1023.32
2017-03-25T07:33:11.721Z,1023.33
2017-03-25T07:33:52.249Z,1023.31
2017-03-25T07:34:32.776Z,1023.36
2017-03-25T07:35:13.304Z,1023.36
2017-03-25T07:35:53.823Z,1023.38
2017-03-25T07:36:34.346Z,1023.35
2017-03-25T07:37:14.881Z,1023.35
2017-03-25T07:37:55.400Z,1023.35
2017-03-25T07:38:35.922Z,1023.36
2017-03-25T07:39:16.423Z,1023.37
2017-03-25T07:39:56.946Z,1023.4
2017-03-25T07:40:37.458Z,1023.4
2017-03-25T07:41:17.995Z,1023.41
2017-03-25T07:41:58.490Z,1023.43
2017-03-25T07:42:39.027Z,1023.44
2017-03-25T07:43:19.559Z,1023.45
2017-03-25T07:44:00.083Z,1023.45
2017-03-25T07:44:40.599Z,1023.44
2017-03-25T07:45:21.129Z,1023.46
2017-03-25T07:46:01.641Z,1023.5
2017-03-25T07:46:42.165Z,1023.5
2017-03-25T07:47:22.676Z,1023.46
2017-03-25T07:48:03.188Z,1023.5
2017-03-25T07:48:43.838Z,1023.5
2017-03-25T07:49:24.314Z,1023.54
2017-03-25T07:50:04.814Z,1023.55
2017-03-25T07:50:45.343Z,1023.57
2017-03-25T07:51:25.841Z,1023.55
2017-03-25T07:52:06.331Z,1023.57
2017-03-25T07:52:46.885Z,1023.51
2017-03-25T07:53:27.352Z,1023.53
2017-03-25T07:54:07.870Z,1023.54
2017-03-25T07:54:48.394Z,1023.52
2017-03-25T07:55:28.895Z,1023.53
2017-03-25T07:56:09.382Z,1023.49
2017-03-25T07:56:49.910Z,1023.52
2017-03-25T07:57:30.459Z,1023.5
2017-03-25T07:58:10.957Z,1023.52
2017-03-25T07:58:51.466Z,1023.53
2017-03-25T07:59:32.020Z,1023.52
2017-03-25T08:00:12.533Z,1023.54
2017-03-25T08:00:53.061Z,1023.54
2017-03-25T08:01:33.599Z,1023.54
2017-03-25T08:02:14.119Z,1023.57
2017-03-25T08:02:54.619Z,1023.54
2017-03-25T08:03:35.136Z,1023.55
2017-03-25T08:04:15.651Z,1023.53
2017-03-25T08:04:56.150Z,1023.53
2017-03-25T08:05:36.708Z,1023.56
2017-03-25T08:06:17.237Z,1023.51
2017-03-25T08:06:57.758Z,1023.54
2017-03-25T08:07:38.264Z,1023.51
2017-03-25T08:08:18.781Z,1023.53
2017-03-25T08:08:59.315Z,1023.5
2017-03-25T08:09:39.817Z,1023.48
2017-03-25T08:10:20.340Z,1023.46
2017-03-25T08:11:00.850Z,1023.45
2017-03-25T08:11:41.367Z,1023.43
2017-03-25T08:12:21.886Z,1023.46
2017-03-25T08:13:02.410Z,1023.41
2017-03-25T08:13:42.944Z,1023.43